sensor_id;sensor_type;location;lat;lon;timestamp;temperature;humidity
21489;DHT22;10906;45.194;5.684;2022-08-19T05:03:01;18.50;99.90
21489;DHT22;10906;45.194;5.684;2022-08-19T05:05:48;18.50;99.90
21489;DHT22;10906;45.194;5.684;2022-08-19T05:08:34;18.50;99.90
21489;DHT22;10906;45.194;5.684;2022-08-19T05:11:24;18.50;99.90
21489;DHT22;10906;45.194;5.684;2022-08-19T05:14:10;18.50;99.90
21489;DHT22;10906;45.194;5.684;2022-08-19T05:16:56;18.50;99.90
21489;DHT22;10906;45.194;5.684;2022-08-19T05:19:40;18.50;99.90
21489;DHT22;10906;45.194;5.684;2022-08-19T05:22:45;18.50;99.90
21489;DHT22;10906;45.194;5.684;2022-08-19T05:25:30;18.40;99.90
21489;DHT22;10906;45.194;5.684;2022-08-19T05:28:14;18.40;99.90
21489;DHT22;10906;45.194;5.684;2022-08-19T05:30:59;18.40;99.90
21489;DHT22;10906;45.194;5.684;2022-08-19T05:33:43;18.40;99.90
21489;DHT22;10906;45.194;5.684;2022-08-19T05:36:32;18.40;99.90
21489;DHT22;10906;45.194;5.684;2022-08-19T05:39:20;18.50;99.90
21489;DHT22;10906;45.194;5.684;2022-08-19T05:42:07;18.50;99.90
21489;DHT22;10906;45.194;5.684;2022-08-19T05:44:52;18.50;99.90
21489;DHT22;10906;45.194;5.684;2022-08-19T05:47:36;18.50;99.90
21489;DHT22;10906;45.194;5.684;2022-08-19T05:50:21;18.50;99.90
21489;DHT22;10906;45.194;5.684;2022-08-19T05:53:07;18.50;99.90
21489;DHT22;10906;45.194;5.684;2022-08-19T05:55:53;18.50;99.90
21489;DHT22;10906;45.194;5.684;2022-08-19T05:58:38;18.50;99.90
21489;DHT22;10906;45.194;5.684;2022-08-19T06:01:22;18.50;99.90
21489;DHT22;10906;45.194;5.684;2022-08-19T06:04:07;18.50;99.90
21489;DHT22;10906;45.194;5.684;2022-08-19T06:06:53;18.50;99.90
21489;DHT22;10906;45.194;5.684;2022-08-19T06:09:37;18.50;99.90
21489;DHT22;10906;45.194;5.684;2022-08-19T06:12:22;18.50;99.90
21489;DHT22;10906;45.194;5.684;2022-08-19T06:15:13;18.50;99.90
21489;DHT22;10906;45.194;5.684;2022-08-19T06:18:03;18.60;99.90
21489;DHT22;10906;45.194;5.684;2022-08-19T06:20:48;18.60;99.90
21489;DHT22;10906;45.194;5.684;2022-08-19T06:23:33;18.60;99.90
21489;DHT22;10906;45.194;5.684;2022-08-19T06:26:19;18.60;99.90
21489;DHT22;10906;45.194;5.684;2022-08-19T06:29:05;18.60;99.90
21489;DHT22;10906;45.194;5.684;2022-08-19T06:31:55;18.60;99.90
21489;DHT22;10906;45.194;5.684;2022-08-19T06:34:40;18.60;99.90
21489;DHT22;10906;45.194;5.684;2022-08-19T06:37:25;18.60;99.90
21489;DHT22;10906;45.194;5.684;2022-08-19T06:40:10;18.60;99.90
21489;DHT22;10906;45.194;5.684;2022-08-19T06:42:54;18.60;99.90
21489;DHT22;10906;45.194;5.684;2022-08-19T06:45:40;18.60;99.90
21489;DHT22;10906;45.194;5.684;2022-08-19T06:48:24;18.60;99.90
21489;DHT22;10906;45.194;5.684;2022-08-19T06:51:08;18.70;99.90
21489;DHT22;10906;45.194;5.684;2022-08-19T06:53:54;18.70;99.90
21489;DHT22;10906;45.194;5.684;2022-08-19T06:56:38;18.70;99.90
21489;DHT22;10906;45.194;5.684;2022-08-19T06:59:24;18.70;99.90
21489;DHT22;10906;45.194;5.684;2022-08-19T07:02:12;18.80;99.90
21489;DHT22;10906;45.194;5.684;2022-08-19T07:04:56;18.80;99.90
21489;DHT22;10906;45.194;5.684;2022-08-19T07:07:46;18.70;99.90
21489;DHT22;10906;45.194;5.684;2022-08-19T07:10:31;18.80;99.90
21489;DHT22;10906;45.194;5.684;2022-08-19T07:13:16;18.80;99.90
21489;DHT22;10906;45.194;5.684;2022-08-19T07:16:10;18.80;99.90
21489;DHT22;10906;45.194;5.684;2022-08-19T07:18:55;18.80;99.90
21489;DHT22;10906;45.194;5.684;2022-08-19T07:21:40;18.90;99.90
21489;DHT22;10906;45.194;5.684;2022-08-19T07:24:26;19.00;99.90
21489;DHT22;10906;45.194;5.684;2022-08-19T07:27:14;19.00;99.90
21489;DHT22;10906;45.194;5.684;2022-08-19T07:29:58;19.00;99.90
21489;DHT22;10906;45.194;5.684;2022-08-19T07:32:42;19.00;99.90
21489;DHT22;10906;45.194;5.684;2022-08-19T07:35:27;19.00;99.90
21489;DHT22;10906;45.194;5.684;2022-08-19T07:38:12;19.10;99.90
21489;DHT22;10906;45.194;5.684;2022-08-19T07:40:56;19.00;99.90
21489;DHT22;10906;45.194;5.684;2022-08-19T07:43:40;19.10;99.90
21489;DHT22;10906;45.194;5.684;2022-08-19T07:46:25;19.10;99.90
21489;DHT22;10906;45.194;5.684;2022-08-19T07:49:12;19.10;99.90
21489;DHT22;10906;45.194;5.684;2022-08-19T07:52:05;19.10;99.90
21489;DHT22;10906;45.194;5.684;2022-08-19T07:54:50;19.20;99.90
21489;DHT22;10906;45.194;5.684;2022-08-19T07:57:35;19.20;99.90
21489;DHT22;10906;45.194;5.684;2022-08-19T08:00:20;19.30;99.90
21489;DHT22;10906;45.194;5.684;2022-08-19T08:03:04;19.30;99.90
21489;DHT22;10906;45.194;5.684;2022-08-19T08:05:49;19.30;99.90
21489;DHT22;10906;45.194;5.684;2022-08-19T08:08:52;19.40;99.90
21489;DHT22;10906;45.194;5.684;2022-08-19T08:16:22;19.10;99.90
21489;DHT22;10906;45.194;5.684;2022-08-19T08:19:09;19.60;99.90
21489;DHT22;10906;45.194;5.684;2022-08-19T08:21:56;19.70;99.90
21489;DHT22;10906;45.194;5.684;2022-08-19T08:24:41;19.70;99.90
21489;DHT22;10906;45.194;5.684;2022-08-19T08:27:35;19.80;99.90
21489;DHT22;10906;45.194;5.684;2022-08-19T08:30:22;19.80;99.90
21489;DHT22;10906;45.194;5.684;2022-08-19T08:33:08;19.90;99.90
21489;DHT22;10906;45.194;5.684;2022-08-19T08:35:52;19.90;99.90
21489;DHT22;10906;45.194;5.684;2022-08-19T08:38:37;20.10;99.90
21489;DHT22;10906;45.194;5.684;2022-08-19T08:41:28;20.20;99.90
21489;DHT22;10906;45.194;5.684;2022-08-19T08:44:46;20.30;99.90
21489;DHT22;10906;45.194;5.684;2022-08-19T08:47:37;20.40;99.90
21489;DHT22;10906;45.194;5.684;2022-08-19T08:50:33;20.50;99.90
21489;DHT22;10906;45.194;5.684;2022-08-19T08:53:23;20.50;99.90
21489;DHT22;10906;45.194;5.684;2022-08-19T08:56:09;20.50;99.90
21489;DHT22;10906;45.194;5.684;2022-08-19T09:02:04;20.80;99.90
21489;DHT22;10906;45.194;5.684;2022-08-19T09:04:56;20.90;99.90
21489;DHT22;10906;45.194;5.684;2022-08-19T09:07:59;21.80;99.90
21489;DHT22;10906;45.194;5.684;2022-08-19T09:10:49;21.20;99.90
21489;DHT22;10906;45.194;5.684;2022-08-19T09:16:26;21.20;99.90
21489;DHT22;10906;45.194;5.684;2022-08-19T09:19:11;21.20;99.90
21489;DHT22;10906;45.194;5.684;2022-08-19T09:21:56;21.30;99.90
21489;DHT22;10906;45.194;5.684;2022-08-19T09:24:41;21.30;99.90
21489;DHT22;10906;45.194;5.684;2022-08-19T09:27:29;21.30;99.90
21489;DHT22;10906;45.194;5.684;2022-08-19T09:30:17;21.30;99.90
21489;DHT22;10906;45.194;5.684;2022-08-19T09:33:02;21.20;99.90
21489;DHT22;10906;45.194;5.684;2022-08-19T09:35:47;21.20;99.90
21489;DHT22;10906;45.194;5.684;2022-08-19T09:38:31;21.20;99.90
21489;DHT22;10906;45.194;5.684;2022-08-19T09:41:19;21.20;99.90
21489;DHT22;10906;45.194;5.684;2022-08-19T09:44:03;21.20;99.90
21489;DHT22;10906;45.194;5.684;2022-08-19T09:46:48;21.30;99.90
21489;DHT22;10906;45.194;5.684;2022-08-19T09:49:32;21.30;99.90
21489;DHT22;10906;45.194;5.684;2022-08-19T09:52:17;21.30;99.90
21489;DHT22;10906;45.194;5.684;2022-08-19T09:55:12;21.30;99.90
21489;DHT22;10906;45.194;5.684;2022-08-19T09:57:56;21.30;99.90
21489;DHT22;10906;45.194;5.684;2022-08-19T10:00:44;21.30;99.90
21489;DHT22;10906;45.194;5.684;2022-08-19T10:03:31;21.30;99.90
21489;DHT22;10906;45.194;5.684;2022-08-19T10:06:15;21.20;99.90
21489;DHT22;10906;45.194;5.684;2022-08-19T10:09:00;21.20;99.90
21489;DHT22;10906;45.194;5.684;2022-08-19T10:11:45;21.20;99.90
21489;DHT22;10906;45.194;5.684;2022-08-19T10:14:33;21.10;99.90
21489;DHT22;10906;45.194;5.684;2022-08-19T10:17:17;21.10;99.90
21489;DHT22;10906;45.194;5.684;2022-08-19T10:20:02;21.10;99.90
21489;DHT22;10906;45.194;5.684;2022-08-19T10:22:48;21.10;99.90
21489;DHT22;10906;45.194;5.684;2022-08-19T10:25:32;21.10;99.90
21489;DHT22;10906;45.194;5.684;2022-08-19T10:28:18;21.10;99.90
21489;DHT22;10906;45.194;5.684;2022-08-19T10:31:08;21.10;99.90
21489;DHT22;10906;45.194;5.684;2022-08-19T10:33:53;21.00;99.90
21489;DHT22;10906;45.194;5.684;2022-08-19T10:36:41;21.00;99.90
21489;DHT22;10906;45.194;5.684;2022-08-19T10:39:29;21.10;99.90
21489;DHT22;10906;45.194;5.684;2022-08-19T10:42:14;21.10;99.90
21489;DHT22;10906;45.194;5.684;2022-08-19T10:44:59;21.10;99.90
21489;DHT22;10906;45.194;5.684;2022-08-19T10:47:44;21.10;99.90
21489;DHT22;10906;45.194;5.684;2022-08-19T10:50:28;21.00;99.90
21489;DHT22;10906;45.194;5.684;2022-08-19T10:53:31;21.00;99.90
21489;DHT22;10906;45.194;5.684;2022-08-19T10:56:15;20.90;99.90
21489;DHT22;10906;45.194;5.684;2022-08-19T10:59:26;20.80;99.90
21489;DHT22;10906;45.194;5.684;2022-08-19T11:02:11;20.70;99.90
21489;DHT22;10906;45.194;5.684;2022-08-19T11:04:57;20.60;99.90
21489;DHT22;10906;45.194;5.684;2022-08-19T11:07:42;20.60;99.90
21489;DHT22;10906;45.194;5.684;2022-08-19T11:10:26;20.60;99.90
21489;DHT22;10906;45.194;5.684;2022-08-19T11:13:10;20.50;99.90
21489;DHT22;10906;45.194;5.684;2022-08-19T11:15:59;20.50;99.90
21489;DHT22;10906;45.194;5.684;2022-08-19T11:18:51;20.00;99.90
21489;DHT22;10906;45.194;5.684;2022-08-19T11:21:55;20.60;99.90
21489;DHT22;10906;45.194;5.684;2022-08-19T11:24:39;20.60;99.90
21489;DHT22;10906;45.194;5.684;2022-08-19T11:27:24;20.60;99.90
21489;DHT22;10906;45.194;5.684;2022-08-19T11:30:11;20.50;99.90
21489;DHT22;10906;45.194;5.684;2022-08-19T11:32:57;20.60;99.90
21489;DHT22;10906;45.194;5.684;2022-08-19T11:35:41;20.60;99.90
21489;DHT22;10906;45.194;5.684;2022-08-19T11:38:26;20.60;99.90
21489;DHT22;10906;45.194;5.684;2022-08-19T11:41:11;20.80;99.90
21489;DHT22;10906;45.194;5.684;2022-08-19T11:43:58;20.90;99.90
21489;DHT22;10906;45.194;5.684;2022-08-19T11:46:45;21.00;99.90
21489;DHT22;10906;45.194;5.684;2022-08-19T11:49:32;21.20;99.90
21489;DHT22;10906;45.194;5.684;2022-08-19T11:52:20;21.30;99.90
21489;DHT22;10906;45.194;5.684;2022-08-19T11:55:05;21.40;99.90
21489;DHT22;10906;45.194;5.684;2022-08-19T11:57:50;21.60;99.90
21489;DHT22;10906;45.194;5.684;2022-08-19T12:00:35;21.80;99.90
21489;DHT22;10906;45.194;5.684;2022-08-19T12:03:21;21.90;99.90
21489;DHT22;10906;45.194;5.684;2022-08-19T12:06:11;22.10;99.90
21489;DHT22;10906;45.194;5.684;2022-08-19T12:09:02;22.30;99.90
21489;DHT22;10906;45.194;5.684;2022-08-19T12:11:47;22.30;99.90
21489;DHT22;10906;45.194;5.684;2022-08-19T12:14:32;22.30;99.90
21489;DHT22;10906;45.194;5.684;2022-08-19T12:17:16;22.30;99.90
21489;DHT22;10906;45.194;5.684;2022-08-19T12:20:01;22.30;99.90
21489;DHT22;10906;45.194;5.684;2022-08-19T12:22:45;22.30;99.90
21489;DHT22;10906;45.194;5.684;2022-08-19T12:25:30;22.30;99.90
21489;DHT22;10906;45.194;5.684;2022-08-19T12:28:14;22.30;99.90
21489;DHT22;10906;45.194;5.684;2022-08-19T12:31:09;22.20;99.90
21489;DHT22;10906;45.194;5.684;2022-08-19T12:33:56;22.10;99.90
21489;DHT22;10906;45.194;5.684;2022-08-19T12:36:43;22.00;99.90
21489;DHT22;10906;45.194;5.684;2022-08-19T12:39:27;21.80;99.90
21489;DHT22;10906;45.194;5.684;2022-08-19T12:42:13;21.80;99.90
21489;DHT22;10906;45.194;5.684;2022-08-19T12:45:05;21.80;99.90
21489;DHT22;10906;45.194;5.684;2022-08-19T12:47:50;21.70;99.90
21489;DHT22;10906;45.194;5.684;2022-08-19T12:50:42;21.60;99.90
21489;DHT22;10906;45.194;5.684;2022-08-19T12:53:27;21.60;99.90
21489;DHT22;10906;45.194;5.684;2022-08-19T12:56:13;21.60;99.90
21489;DHT22;10906;45.194;5.684;2022-08-19T12:59:01;21.50;99.90
21489;DHT22;10906;45.194;5.684;2022-08-19T13:01:46;21.40;99.90
21489;DHT22;10906;45.194;5.684;2022-08-19T13:04:31;21.40;99.90
21489;DHT22;10906;45.194;5.684;2022-08-19T13:07:16;21.40;99.90
21489;DHT22;10906;45.194;5.684;2022-08-19T13:10:01;21.30;99.90
21489;DHT22;10906;45.194;5.684;2022-08-19T13:12:52;21.20;99.90
21489;DHT22;10906;45.194;5.684;2022-08-19T13:15:39;21.00;99.90
21489;DHT22;10906;45.194;5.684;2022-08-19T13:18:23;20.90;99.90
21489;DHT22;10906;45.194;5.684;2022-08-19T13:21:10;20.70;99.90
21489;DHT22;10906;45.194;5.684;2022-08-19T13:23:57;20.60;99.90
21489;DHT22;10906;45.194;5.684;2022-08-19T13:26:42;20.50;99.90
21489;DHT22;10906;45.194;5.684;2022-08-19T13:29:27;20.40;99.90
21489;DHT22;10906;45.194;5.684;2022-08-19T13:32:35;20.40;99.90
21489;DHT22;10906;45.194;5.684;2022-08-19T13:35:46;20.30;99.90
21489;DHT22;10906;45.194;5.684;2022-08-19T13:38:31;20.20;99.90
21489;DHT22;10906;45.194;5.684;2022-08-19T13:41:19;20.20;99.90
21489;DHT22;10906;45.194;5.684;2022-08-19T13:44:10;20.10;99.90
21489;DHT22;10906;45.194;5.684;2022-08-19T13:47:02;20.10;99.90
21489;DHT22;10906;45.194;5.684;2022-08-19T13:49:51;20.00;99.90
21489;DHT22;10906;45.194;5.684;2022-08-19T13:52:35;20.00;99.90
21489;DHT22;10906;45.194;5.684;2022-08-19T13:55:21;20.00;99.90
21489;DHT22;10906;45.194;5.684;2022-08-19T13:58:06;20.00;99.90
21489;DHT22;10906;45.194;5.684;2022-08-19T14:00:51;20.10;99.90
21489;DHT22;10906;45.194;5.684;2022-08-19T14:03:36;20.10;99.90
21489;DHT22;10906;45.194;5.684;2022-08-19T14:06:20;20.10;99.90
21489;DHT22;10906;45.194;5.684;2022-08-19T14:09:06;20.20;99.90
21489;DHT22;10906;45.194;5.684;2022-08-19T14:11:51;20.20;99.90
21489;DHT22;10906;45.194;5.684;2022-08-19T14:14:37;20.30;99.90
21489;DHT22;10906;45.194;5.684;2022-08-19T14:17:22;20.30;99.90
21489;DHT22;10906;45.194;5.684;2022-08-19T14:20:08;20.40;99.90
21489;DHT22;10906;45.194;5.684;2022-08-19T14:22:53;20.40;99.90
21489;DHT22;10906;45.194;5.684;2022-08-19T14:25:38;20.40;99.90
21489;DHT22;10906;45.194;5.684;2022-08-19T14:28:23;20.40;99.90
21489;DHT22;10906;45.194;5.684;2022-08-19T14:31:09;20.40;99.90
21489;DHT22;10906;45.194;5.684;2022-08-19T14:33:53;20.40;99.90
21489;DHT22;10906;45.194;5.684;2022-08-19T14:36:37;20.50;99.90
21489;DHT22;10906;45.194;5.684;2022-08-19T14:39:21;20.50;99.90
21489;DHT22;10906;45.194;5.684;2022-08-19T14:42:09;20.50;99.90
21489;DHT22;10906;45.194;5.684;2022-08-19T14:44:57;20.60;99.90
21489;DHT22;10906;45.194;5.684;2022-08-19T14:47:42;20.60;99.90
21489;DHT22;10906;45.194;5.684;2022-08-19T14:50:27;20.70;99.90
21489;DHT22;10906;45.194;5.684;2022-08-19T14:53:12;20.70;99.90
21489;DHT22;10906;45.194;5.684;2022-08-19T14:55:56;20.80;99.90
21489;DHT22;10906;45.194;5.684;2022-08-19T14:58:42;20.90;99.90
21489;DHT22;10906;45.194;5.684;2022-08-19T15:01:27;20.90;99.90
21489;DHT22;10906;45.194;5.684;2022-08-19T15:04:12;20.90;99.90
21489;DHT22;10906;45.194;5.684;2022-08-19T15:06:56;20.80;99.90
21489;DHT22;10906;45.194;5.684;2022-08-19T15:09:40;20.80;99.90
21489;DHT22;10906;45.194;5.684;2022-08-19T15:12:25;20.80;99.90
21489;DHT22;10906;45.194;5.684;2022-08-19T15:15:12;20.70;99.90
21489;DHT22;10906;45.194;5.684;2022-08-19T15:17:56;20.70;99.90
21489;DHT22;10906;45.194;5.684;2022-08-19T15:20:49;20.70;99.90
21489;DHT22;10906;45.194;5.684;2022-08-19T15:23:34;20.70;99.90
21489;DHT22;10906;45.194;5.684;2022-08-19T15:26:20;20.40;99.90
21489;DHT22;10906;45.194;5.684;2022-08-19T15:29:04;20.90;99.90
21489;DHT22;10906;45.194;5.684;2022-08-19T15:31:48;21.10;99.90
21489;DHT22;10906;45.194;5.684;2022-08-19T15:34:34;21.20;99.90
21489;DHT22;10906;45.194;5.684;2022-08-19T15:37:20;21.40;99.90
21489;DHT22;10906;45.194;5.684;2022-08-19T15:40:13;21.40;99.90
21489;DHT22;10906;45.194;5.684;2022-08-19T15:42:57;21.50;99.90
21489;DHT22;10906;45.194;5.684;2022-08-19T15:45:44;21.40;99.90
21489;DHT22;10906;45.194;5.684;2022-08-19T15:48:28;21.40;99.90
21489;DHT22;10906;45.194;5.684;2022-08-19T15:51:12;21.40;99.90
21489;DHT22;10906;45.194;5.684;2022-08-19T15:54:02;21.50;99.90
21489;DHT22;10906;45.194;5.684;2022-08-19T15:56:47;21.90;99.90
21489;DHT22;10906;45.194;5.684;2022-08-19T15:59:51;22.50;99.90
21489;DHT22;10906;45.194;5.684;2022-08-19T16:02:54;23.00;99.90
21489;DHT22;10906;45.194;5.684;2022-08-19T16:05:57;23.40;99.90
21489;DHT22;10906;45.194;5.684;2022-08-19T16:09:01;23.50;99.90
21489;DHT22;10906;45.194;5.684;2022-08-19T16:11:58;23.60;99.90
21489;DHT22;10906;45.194;5.684;2022-08-19T16:14:45;23.90;99.90
21489;DHT22;10906;45.194;5.684;2022-08-19T16:17:30;24.00;99.90
21489;DHT22;10906;45.194;5.684;2022-08-19T16:20:15;23.70;99.90
21489;DHT22;10906;45.194;5.684;2022-08-19T16:23:00;23.50;99.90
21489;DHT22;10906;45.194;5.684;2022-08-19T16:25:46;23.50;99.90
21489;DHT22;10906;45.194;5.684;2022-08-19T16:28:31;23.40;99.90
21489;DHT22;10906;45.194;5.684;2022-08-19T16:31:15;23.30;99.90
21489;DHT22;10906;45.194;5.684;2022-08-19T16:33:59;23.20;99.90
21489;DHT22;10906;45.194;5.684;2022-08-19T16:36:44;23.30;99.90
21489;DHT22;10906;45.194;5.684;2022-08-19T16:39:28;23.40;99.90
21489;DHT22;10906;45.194;5.684;2022-08-19T16:42:14;23.50;99.90
21489;DHT22;10906;45.194;5.684;2022-08-19T16:44:58;23.50;99.90
21489;DHT22;10906;45.194;5.684;2022-08-19T16:47:42;23.50;99.90
21489;DHT22;10906;45.194;5.684;2022-08-19T16:50:27;23.40;99.90
21489;DHT22;10906;45.194;5.684;2022-08-19T16:53:11;23.40;99.90
21489;DHT22;10906;45.194;5.684;2022-08-19T16:55:55;23.30;99.90
21489;DHT22;10906;45.194;5.684;2022-08-19T16:58:40;23.20;99.90
21489;DHT22;10906;45.194;5.684;2022-08-19T17:01:26;23.10;99.90
21489;DHT22;10906;45.194;5.684;2022-08-19T17:04:11;22.90;99.90
21489;DHT22;10906;45.194;5.684;2022-08-19T17:06:56;22.80;99.90
21489;DHT22;10906;45.194;5.684;2022-08-19T17:09:40;22.60;99.90
21489;DHT22;10906;45.194;5.684;2022-08-19T17:12:25;22.50;99.90
21489;DHT22;10906;45.194;5.684;2022-08-19T17:15:11;22.50;99.90
21489;DHT22;10906;45.194;5.684;2022-08-19T17:18:05;23.20;99.90
21489;DHT22;10906;45.194;5.684;2022-08-19T17:20:50;22.30;99.90
21489;DHT22;10906;45.194;5.684;2022-08-19T17:23:36;22.20;99.90
21489;DHT22;10906;45.194;5.684;2022-08-19T17:26:21;22.20;99.90
21489;DHT22;10906;45.194;5.684;2022-08-19T17:29:06;22.20;99.90
21489;DHT22;10906;45.194;5.684;2022-08-19T17:31:50;22.10;99.90
21489;DHT22;10906;45.194;5.684;2022-08-19T17:34:35;22.00;99.90
21489;DHT22;10906;45.194;5.684;2022-08-19T17:37:20;22.00;99.90
21489;DHT22;10906;45.194;5.684;2022-08-19T17:40:07;21.90;99.90
21489;DHT22;10906;45.194;5.684;2022-08-19T17:42:54;21.90;99.90
21489;DHT22;10906;45.194;5.684;2022-08-19T17:45:40;21.90;99.90
21489;DHT22;10906;45.194;5.684;2022-08-19T17:48:24;21.90;99.90
21489;DHT22;10906;45.194;5.684;2022-08-19T17:51:38;22.70;99.90
21489;DHT22;10906;45.194;5.684;2022-08-19T17:54:23;21.90;99.90
21489;DHT22;10906;45.194;5.684;2022-08-19T17:57:08;21.90;99.90
21489;DHT22;10906;45.194;5.684;2022-08-19T17:59:52;21.80;99.90
21489;DHT22;10906;45.194;5.684;2022-08-19T18:02:51;21.80;99.90
21489;DHT22;10906;45.194;5.684;2022-08-19T18:05:40;21.80;99.90
21489;DHT22;10906;45.194;5.684;2022-08-19T18:08:26;21.80;99.90
21489;DHT22;10906;45.194;5.684;2022-08-19T18:11:10;21.80;99.90
21489;DHT22;10906;45.194;5.684;2022-08-19T18:13:55;21.70;99.90
21489;DHT22;10906;45.194;5.684;2022-08-19T18:16:42;21.70;99.90
21489;DHT22;10906;45.194;5.684;2022-08-19T18:19:28;21.80;99.90
21489;DHT22;10906;45.194;5.684;2022-08-19T18:25:21;21.70;99.90
21489;DHT22;10906;45.194;5.684;2022-08-19T18:28:08;21.70;99.90
21489;DHT22;10906;45.194;5.684;2022-08-19T18:30:52;21.60;99.90
21489;DHT22;10906;45.194;5.684;2022-08-19T18:33:36;21.60;99.90
21489;DHT22;10906;45.194;5.684;2022-08-19T18:36:21;21.60;99.90
21489;DHT22;10906;45.194;5.684;2022-08-19T18:39:06;21.60;99.90
21489;DHT22;10906;45.194;5.684;2022-08-19T18:42:21;20.70;99.90
21489;DHT22;10906;45.194;5.684;2022-08-19T18:45:28;21.50;99.90
21489;DHT22;10906;45.194;5.684;2022-08-19T18:48:31;21.60;99.90
21489;DHT22;10906;45.194;5.684;2022-08-19T18:51:34;21.40;99.90
21489;DHT22;10906;45.194;5.684;2022-08-19T18:54:19;21.50;99.90
21489;DHT22;10906;45.194;5.684;2022-08-19T18:57:06;21.40;99.90
21489;DHT22;10906;45.194;5.684;2022-08-19T18:59:50;21.40;99.90
21489;DHT22;10906;45.194;5.684;2022-08-19T19:02:38;21.40;99.90
21489;DHT22;10906;45.194;5.684;2022-08-19T19:05:22;21.40;99.90
21489;DHT22;10906;45.194;5.684;2022-08-19T19:08:07;21.30;99.90
21489;DHT22;10906;45.194;5.684;2022-08-19T19:10:52;21.30;99.90
21489;DHT22;10906;45.194;5.684;2022-08-19T19:13:39;21.30;99.90
21489;DHT22;10906;45.194;5.684;2022-08-19T19:16:23;21.20;99.90
21489;DHT22;10906;45.194;5.684;2022-08-19T19:19:07;21.20;99.90
21489;DHT22;10906;45.194;5.684;2022-08-19T19:21:56;21.10;99.90
21489;DHT22;10906;45.194;5.684;2022-08-19T19:24:41;21.00;99.90
21489;DHT22;10906;45.194;5.684;2022-08-19T19:27:29;20.90;99.90
21489;DHT22;10906;45.194;5.684;2022-08-19T19:30:15;20.90;99.90
21489;DHT22;10906;45.194;5.684;2022-08-19T19:32:59;20.80;99.90
21489;DHT22;10906;45.194;5.684;2022-08-19T19:35:44;20.70;99.90
21489;DHT22;10906;45.194;5.684;2022-08-19T19:38:29;20.60;99.90
21489;DHT22;10906;45.194;5.684;2022-08-19T19:41:16;20.60;99.90
21489;DHT22;10906;45.194;5.684;2022-08-19T19:44:02;20.50;99.90
21489;DHT22;10906;45.194;5.684;2022-08-19T19:46:46;20.40;99.90
21489;DHT22;10906;45.194;5.684;2022-08-19T19:49:31;20.40;99.90
21489;DHT22;10906;45.194;5.684;2022-08-19T19:52:16;20.30;99.90
21489;DHT22;10906;45.194;5.684;2022-08-19T19:55:01;20.30;99.90
21489;DHT22;10906;45.194;5.684;2022-08-19T19:57:51;20.30;99.90
21489;DHT22;10906;45.194;5.684;2022-08-19T20:00:36;20.20;99.90
21489;DHT22;10906;45.194;5.684;2022-08-19T20:03:20;20.10;99.90
21489;DHT22;10906;45.194;5.684;2022-08-19T20:06:06;20.10;99.90
21489;DHT22;10906;45.194;5.684;2022-08-19T20:08:51;20.10;99.90
21489;DHT22;10906;45.194;5.684;2022-08-19T20:11:55;20.10;99.90
21489;DHT22;10906;45.194;5.684;2022-08-19T20:14:44;20.00;99.90
21489;DHT22;10906;45.194;5.684;2022-08-19T20:17:29;20.10;99.90
21489;DHT22;10906;45.194;5.684;2022-08-19T20:20:15;20.00;99.90
21489;DHT22;10906;45.194;5.684;2022-08-19T20:23:01;20.00;99.90
21489;DHT22;10906;45.194;5.684;2022-08-19T20:25:46;20.10;99.90
21489;DHT22;10906;45.194;5.684;2022-08-19T20:28:30;20.10;99.90
21489;DHT22;10906;45.194;5.684;2022-08-19T20:31:19;20.10;99.90
21489;DHT22;10906;45.194;5.684;2022-08-19T20:34:07;20.10;99.90
21489;DHT22;10906;45.194;5.684;2022-08-19T20:36:52;20.10;99.90
21489;DHT22;10906;45.194;5.684;2022-08-19T20:39:39;20.00;99.90
21489;DHT22;10906;45.194;5.684;2022-08-19T20:42:23;20.00;99.90
21489;DHT22;10906;45.194;5.684;2022-08-19T20:45:13;20.00;99.90
21489;DHT22;10906;45.194;5.684;2022-08-19T20:47:57;20.10;99.90
21489;DHT22;10906;45.194;5.684;2022-08-19T20:50:42;20.10;99.90
21489;DHT22;10906;45.194;5.684;2022-08-19T20:53:27;20.10;99.90
21489;DHT22;10906;45.194;5.684;2022-08-19T20:56:11;20.20;99.90
21489;DHT22;10906;45.194;5.684;2022-08-19T20:58:55;20.20;99.90
21489;DHT22;10906;45.194;5.684;2022-08-19T21:01:40;20.20;99.90
21489;DHT22;10906;45.194;5.684;2022-08-19T21:04:24;20.30;99.90
21489;DHT22;10906;45.194;5.684;2022-08-19T21:07:10;20.20;99.90
21489;DHT22;10906;45.194;5.684;2022-08-19T21:09:54;20.20;99.90
21489;DHT22;10906;45.194;5.684;2022-08-19T21:12:39;20.20;99.90
21489;DHT22;10906;45.194;5.684;2022-08-19T21:15:25;20.20;99.90
21489;DHT22;10906;45.194;5.684;2022-08-19T21:18:10;20.20;99.90
21489;DHT22;10906;45.194;5.684;2022-08-19T21:20:55;20.10;99.90
21489;DHT22;10906;45.194;5.684;2022-08-19T21:23:40;20.10;99.90
21489;DHT22;10906;45.194;5.684;2022-08-19T21:26:24;20.10;99.90
21489;DHT22;10906;45.194;5.684;2022-08-19T21:29:09;20.10;99.90
21489;DHT22;10906;45.194;5.684;2022-08-19T21:31:53;20.10;99.90
21489;DHT22;10906;45.194;5.684;2022-08-19T21:34:38;20.00;99.90
21489;DHT22;10906;45.194;5.684;2022-08-19T21:37:22;20.00;99.90
21489;DHT22;10906;45.194;5.684;2022-08-19T21:40:07;20.00;99.90
21489;DHT22;10906;45.194;5.684;2022-08-19T21:42:52;20.00;99.90
21489;DHT22;10906;45.194;5.684;2022-08-19T21:45:37;20.00;99.90
21489;DHT22;10906;45.194;5.684;2022-08-19T21:48:21;19.90;99.90
21489;DHT22;10906;45.194;5.684;2022-08-19T21:51:05;19.90;99.90
21489;DHT22;10906;45.194;5.684;2022-08-19T21:53:50;19.90;99.90
21489;DHT22;10906;45.194;5.684;2022-08-19T21:56:35;19.90;99.90
21489;DHT22;10906;45.194;5.684;2022-08-19T21:59:19;19.90;99.90
